createdAt,value
2022-10-11T00:02:33.271Z,93.30
2022-10-11T00:07:37.508Z,93.50
2022-10-11T00:12:40.482Z,93.50
2022-10-11T00:17:44.929Z,93.20
2022-10-11T00:22:49.258Z,93.20
2022-10-11T00:27:52.198Z,93.20
2022-10-11T00:32:56.493Z,93.00
2022-10-11T00:37:59.377Z,92.80
2022-10-11T00:43:02.104Z,92.70
2022-10-11T00:48:12.845Z,92.70
2022-10-11T00:53:15.950Z,92.70
2022-10-11T00:58:19.930Z,92.70
2022-10-11T01:03:27.965Z,92.80
2022-10-11T01:08:32.461Z,93.20
2022-10-11T01:13:46.198Z,93.90
2022-10-11T01:19:00.441Z,94.20
2022-10-11T01:24:35.518Z,93.70
2022-10-11T01:29:49.577Z,94.20
2022-10-11T01:34:58.650Z,94.10
2022-10-11T01:40:06.524Z,94.00
2022-10-11T01:45:13.817Z,94.40
2022-10-11T01:50:40.949Z,94.50
2022-10-11T01:55:51.836Z,94.70
2022-10-11T02:01:04.853Z,94.60
2022-10-11T02:06:13.486Z,94.60
2022-10-11T02:11:21.327Z,94.60
2022-10-11T02:16:28.379Z,94.80
2022-10-11T02:21:35.465Z,94.70
2022-10-11T02:26:43.323Z,94.30
2022-10-11T02:31:47.521Z,94.20
2022-10-11T02:36:59.711Z,94.20
2022-10-11T02:42:06.479Z,93.90
2022-10-11T02:47:10.397Z,93.90
2022-10-11T02:52:15.608Z,94.20
2022-10-11T02:57:18.979Z,94.10
2022-10-11T03:02:21.949Z,94.20
2022-10-11T03:07:26.333Z,94.10
2022-10-11T03:12:29.300Z,94.00
2022-10-11T03:17:36.718Z,93.90
2022-10-11T03:22:41.561Z,93.90
2022-10-11T03:27:44.697Z,93.90
2022-10-11T03:32:47.669Z,94.10
2022-10-11T03:37:52.006Z,94.30
2022-10-11T03:42:56.466Z,94.40
2022-10-11T03:47:59.480Z,94.30
2022-10-11T03:53:03.874Z,94.20
2022-10-11T03:58:07.055Z,94.10
2022-10-11T04:03:10.005Z,95.00
2022-10-11T04:08:14.307Z,95.40
2022-10-11T04:13:17.582Z,94.40
2022-10-11T04:18:20.507Z,93.00
2022-10-11T04:23:24.877Z,93.40
2022-10-11T04:28:27.911Z,93.50
2022-10-11T04:33:30.882Z,93.30
2022-10-11T04:38:34.985Z,93.50
2022-10-11T04:43:38.312Z,93.60
2022-10-11T04:48:41.248Z,93.30
2022-10-11T04:53:45.709Z,93.30
2022-10-11T04:58:49.505Z,93.40
2022-10-11T05:03:52.506Z,93.50
2022-10-11T05:08:56.806Z,93.50
2022-10-11T05:13:59.732Z,93.60
2022-10-11T05:19:02.690Z,93.70
2022-10-11T05:24:08.069Z,93.50
2022-10-11T05:29:10.989Z,93.60
2022-10-11T05:34:13.966Z,93.70
2022-10-11T05:39:18.249Z,93.70
2022-10-11T05:44:21.270Z,93.80
2022-10-11T05:49:24.261Z,93.80
2022-10-11T05:54:30.738Z,94.20
2022-10-11T05:59:35.781Z,94.30
2022-10-11T06:04:38.782Z,94.00
2022-10-11T06:09:43.089Z,94.00
2022-10-11T06:14:46.009Z,93.90
2022-10-11T06:19:49.014Z,94.10
2022-10-11T06:24:53.321Z,94.00
2022-10-11T06:29:56.557Z,94.20
2022-10-11T06:34:59.609Z,94.30
2022-10-11T06:40:04.016Z,94.20
2022-10-11T06:45:08.026Z,94.30
2022-10-11T06:50:11.134Z,94.30
2022-10-11T06:55:15.578Z,94.30
2022-10-11T07:00:19.679Z,94.00
2022-10-11T07:05:22.655Z,93.90
2022-10-11T07:10:26.987Z,94.00
2022-10-11T07:15:29.948Z,93.70
2022-10-11T07:20:32.945Z,93.50
2022-10-11T07:25:37.355Z,93.40
2022-10-11T07:30:41.674Z,93.30
2022-10-11T07:35:48.250Z,93.50
2022-10-11T07:40:53.206Z,93.50
2022-10-11T07:45:57.067Z,93.20
2022-10-11T07:51:05.001Z,93.20
2022-10-11T07:56:12.365Z,93.50
2022-10-11T08:01:15.567Z,93.30
2022-10-11T08:06:22.911Z,93.10
2022-10-11T08:11:29.671Z,93.00
2022-10-11T08:16:33.608Z,92.90
2022-10-11T08:21:36.582Z,93.60
2022-10-11T08:26:41.711Z,91.80
2022-10-11T08:31:45.342Z,91.80
2022-10-11T08:36:48.623Z,91.40
2022-10-11T08:41:55.780Z,90.60
2022-10-11T08:47:04.034Z,90.90
2022-10-11T08:52:23.954Z,90.60
2022-10-11T08:57:32.870Z,91.20
2022-10-11T09:03:07.160Z,90.80
2022-10-11T09:08:15.839Z,91.20
2022-10-11T09:13:42.411Z,90.30
2022-10-11T09:19:17.875Z,90.50
2022-10-11T09:24:32.640Z,89.50
2022-10-11T09:29:52.176Z,89.40
2022-10-11T09:35:01.626Z,89.60
2022-10-11T09:40:19.489Z,89.60
2022-10-11T09:45:24.618Z,87.50
2022-10-11T09:50:30.639Z,88.00
2022-10-11T09:55:40.969Z,87.60
2022-10-11T10:00:58.547Z,87.80
2022-10-11T10:06:10.862Z,87.30
2022-10-11T10:11:14.806Z,87.10
2022-10-11T10:16:25.765Z,86.80
2022-10-11T10:21:31.580Z,87.10
2022-10-11T10:26:34.874Z,86.50
2022-10-11T10:32:08.793Z,85.70
2022-10-11T10:37:10.400Z,84.90
2022-10-11T10:42:15.053Z,85.50
2022-10-11T10:47:26.150Z,84.30
2022-10-11T10:52:48.322Z,85.50
2022-10-11T10:58:05.384Z,84.40
2022-10-11T11:03:17.554Z,84.30
2022-10-11T11:08:43.432Z,82.30
2022-10-11T11:13:55.803Z,82.90
2022-10-11T11:19:07.654Z,83.20
2022-10-11T11:24:18.253Z,83.70
2022-10-11T11:29:38.525Z,84.00
2022-10-11T11:34:46.589Z,84.00
2022-10-11T11:39:52.446Z,82.80
2022-10-11T11:44:55.494Z,82.40
2022-10-11T11:50:04.574Z,83.20
2022-10-11T11:55:12.248Z,81.70
2022-10-11T12:00:19.082Z,81.30
2022-10-11T12:05:27.545Z,81.10
2022-10-11T12:10:40.546Z,80.60
2022-10-11T12:15:57.552Z,79.40
2022-10-11T12:21:07.526Z,78.90
2022-10-11T12:26:39.486Z,79.80
2022-10-11T12:31:46.014Z,81.40
2022-10-11T12:36:52.543Z,80.70
2022-10-11T12:42:08.308Z,81.20
2022-10-11T12:47:37.042Z,80.70
2022-10-11T12:52:53.188Z,80.90
2022-10-11T12:58:28.074Z,81.40
2022-10-11T13:03:34.713Z,82.00
2022-10-11T13:08:44.261Z,82.00
2022-10-11T13:13:53.535Z,82.50
2022-10-11T13:18:59.780Z,82.90
2022-10-11T13:24:11.235Z,83.20
2022-10-11T13:29:18.179Z,83.30
2022-10-11T13:34:23.470Z,83.40
2022-10-11T13:39:31.535Z,83.20
2022-10-11T13:44:37.482Z,83.10
2022-10-11T13:49:40.655Z,82.70
2022-10-11T13:55:15.019Z,82.30
2022-10-11T14:00:28.493Z,82.50
2022-10-11T14:05:34.712Z,82.20
2022-10-11T14:10:39.021Z,82.30
2022-10-11T14:15:42.207Z,82.20
2022-10-11T14:20:45.484Z,81.80
2022-10-11T14:25:49.943Z,82.30
2022-10-11T14:30:52.937Z,82.50
2022-10-11T14:35:55.914Z,82.50
2022-10-11T14:41:00.197Z,81.80
2022-10-11T14:46:03.376Z,80.30
2022-10-11T14:51:07.744Z,79.10
2022-10-11T14:56:12.448Z,77.80
2022-10-11T15:01:16.563Z,77.60
2022-10-11T15:06:23.278Z,78.10
2022-10-11T15:11:27.985Z,76.60
2022-10-11T15:16:31.113Z,77.60
2022-10-11T15:21:35.443Z,76.90
2022-10-11T15:26:40.436Z,77.10
2022-10-11T15:31:43.639Z,77.00
2022-10-11T15:36:46.740Z,77.10
2022-10-11T15:41:51.026Z,78.40
2022-10-11T15:46:54.018Z,77.80
2022-10-11T15:51:57.025Z,78.60
2022-10-11T15:57:01.799Z,79.00
2022-10-11T16:02:04.844Z,78.60
2022-10-11T16:07:07.984Z,79.70
2022-10-11T16:12:12.411Z,80.10
2022-10-11T16:17:15.371Z,80.40
2022-10-11T16:22:18.541Z,81.00
2022-10-11T16:27:23.108Z,80.50
2022-10-11T16:32:27.365Z,81.50
2022-10-11T16:37:31.672Z,81.80
2022-10-11T16:42:36.369Z,82.00
2022-10-11T16:47:39.390Z,82.30
2022-10-11T16:52:42.333Z,82.70
2022-10-11T16:57:46.626Z,82.50
2022-10-11T17:02:49.646Z,82.70
2022-10-11T17:07:52.595Z,82.70
2022-10-11T17:12:57.622Z,83.00
2022-10-11T17:18:00.521Z,83.20
2022-10-11T17:23:04.382Z,83.50
2022-10-11T17:28:08.834Z,84.30
2022-10-11T17:33:11.729Z,84.10
2022-10-11T17:38:14.668Z,85.00
2022-10-11T17:43:18.937Z,84.90
2022-10-11T17:48:22.035Z,84.90
2022-10-11T17:53:25.340Z,85.00
2022-10-11T17:58:29.628Z,84.60
2022-10-11T18:03:32.615Z,84.60
2022-10-11T18:08:40.229Z,85.00
2022-10-11T18:13:48.123Z,86.30
2022-10-11T18:18:51.328Z,85.80
2022-10-11T18:23:54.426Z,85.70
2022-10-11T18:28:59.360Z,85.70
2022-10-11T18:34:02.593Z,85.60
2022-10-11T18:39:08.810Z,85.90
2022-10-11T18:44:15.348Z,86.00
2022-10-11T18:49:18.268Z,85.50
2022-10-11T18:54:21.597Z,85.90
2022-10-11T18:59:26.347Z,86.10
2022-10-11T19:04:33.220Z,86.00
2022-10-11T19:09:36.179Z,86.50
2022-10-11T19:14:40.729Z,87.20
2022-10-11T19:19:43.789Z,88.20
2022-10-11T19:24:46.732Z,87.70
2022-10-11T19:29:51.096Z,88.00
2022-10-11T19:34:54.018Z,88.20
2022-10-11T19:39:56.938Z,88.40
2022-10-11T19:45:01.299Z,88.30
2022-10-11T19:50:04.478Z,88.60
2022-10-11T19:55:08.133Z,88.40
2022-10-11T20:00:13.592Z,88.60
2022-10-11T20:05:16.821Z,88.70
2022-10-11T20:10:19.808Z,88.70
2022-10-11T20:15:24.262Z,89.20
2022-10-11T20:20:27.278Z,89.60
2022-10-11T20:25:30.247Z,90.00
2022-10-11T20:30:34.601Z,90.20
2022-10-11T20:35:40.277Z,90.30
2022-10-11T20:40:53.734Z,90.40
2022-10-11T20:46:06.695Z,90.40
2022-10-11T20:51:14.792Z,90.60
2022-10-11T20:56:20.313Z,90.30
2022-10-11T21:01:32.482Z,90.30
2022-10-11T21:06:36.123Z,90.40
2022-10-11T21:11:46.817Z,90.20
2022-10-11T21:16:52.078Z,90.30
2022-10-11T21:21:55.658Z,90.50
2022-10-11T21:27:01.401Z,90.50
2022-10-11T21:32:14.389Z,90.60
2022-10-11T21:37:18.058Z,90.70
2022-10-11T21:42:28.606Z,90.70
2022-10-11T21:47:38.703Z,90.60
2022-10-11T21:52:41.997Z,90.60
2022-10-11T21:57:44.942Z,90.70
2022-10-11T22:02:49.175Z,90.90
2022-10-11T22:07:52.112Z,90.70
2022-10-11T22:12:55.083Z,90.70
2022-10-11T22:17:59.358Z,90.90
2022-10-11T22:23:02.380Z,90.90
2022-10-11T22:28:05.936Z,90.70
2022-10-11T22:33:10.185Z,90.30
2022-10-11T22:38:13.114Z,90.60
2022-10-11T22:43:16.083Z,90.80
2022-10-11T22:48:20.412Z,90.80
2022-10-11T22:53:23.738Z,90.80
2022-10-11T22:58:26.805Z,91.00
2022-10-11T23:03:31.146Z,90.80
2022-10-11T23:08:34.193Z,91.00
2022-10-11T23:13:37.349Z,90.90
2022-10-11T23:18:41.640Z,90.40
2022-10-11T23:23:44.666Z,90.30
2022-10-11T23:28:47.789Z,90.20
2022-10-11T23:33:52.098Z,90.70
2022-10-11T23:38:56.604Z,90.80
2022-10-11T23:43:59.622Z,91.00
2022-10-11T23:49:04.098Z,91.00
2022-10-11T23:54:07.492Z,91.10
2022-10-11T23:59:10.561Z,91.20
